createdAt,value
2023-02-11T00:00:28.572Z,129.07
2023-02-11T00:02:58.794Z,128.18
2023-02-11T00:05:31.515Z,154.02
2023-02-11T00:08:01.553Z,153.23
2023-02-11T00:10:31.696Z,160.23
2023-02-11T00:13:01.846Z,151.25
2023-02-11T00:15:31.995Z,156.30
2023-02-11T00:18:02.011Z,161.10
2023-02-11T00:20:34.653Z,160.98
2023-02-11T00:23:04.661Z,161.45
2023-02-11T00:25:34.805Z,163.85
2023-02-11T00:28:04.932Z,129.80
2023-02-11T00:33:05.701Z,174.23
2023-02-11T00:35:40.470Z,168.50
2023-02-11T00:38:11.238Z,163.40
2023-02-11T00:40:41.268Z,170.90
2023-02-11T00:43:11.358Z,136.85
2023-02-11T00:45:41.414Z,165.95
2023-02-11T00:48:11.466Z,169.15
2023-02-11T00:50:44.137Z,142.55
2023-02-11T00:53:14.388Z,172.35
2023-02-11T00:55:44.503Z,163.25
2023-02-11T00:58:14.681Z,178.95
2023-02-11T01:00:45.775Z,168.02
2023-02-11T01:03:17.095Z,169.73
2023-02-11T01:05:50.080Z,172.57
2023-02-11T01:08:20.436Z,180.48
2023-02-11T01:10:58.002Z,173.07
2023-02-11T01:13:29.026Z,171.50
2023-02-11T01:16:00.124Z,168.45
2023-02-11T01:18:30.524Z,158.40
2023-02-11T01:21:03.204Z,167.85
2023-02-11T01:23:33.408Z,170.48
2023-02-11T01:26:03.484Z,183.55
2023-02-11T01:28:34.790Z,140.32
2023-02-11T01:31:06.329Z,185.35
2023-02-11T01:33:36.423Z,177.50
2023-02-11T01:36:12.281Z,183.10
2023-02-11T01:38:44.611Z,185.13
2023-02-11T01:41:17.569Z,185.23
2023-02-11T01:43:50.206Z,192.77
2023-02-11T01:46:36.619Z,150.52
2023-02-11T01:49:10.418Z,184.93
2023-02-11T01:51:46.970Z,164.00
2023-02-11T01:54:35.785Z,154.70
2023-02-11T01:57:20.164Z,189.50
2023-02-11T01:59:57.535Z,163.25
2023-02-11T02:02:33.742Z,172.38
2023-02-11T02:05:09.989Z,200.20
2023-02-11T02:07:50.230Z,199.68
2023-02-11T02:10:25.816Z,205.82
2023-02-11T02:12:56.022Z,205.38
2023-02-11T02:15:35.424Z,165.70
2023-02-11T02:18:24.322Z,163.73
2023-02-11T02:21:27.469Z,197.30
2023-02-11T02:24:34.616Z,174.55
2023-02-11T02:27:26.976Z,169.90
2023-02-11T02:30:38.019Z,195.05
2023-02-11T02:36:07.390Z,173.13
2023-02-11T02:38:41.498Z,195.77
2023-02-11T02:41:14.122Z,177.52
2023-02-11T02:43:46.845Z,173.32
2023-02-11T02:46:20.012Z,192.88
2023-02-11T02:48:54.454Z,181.50
2023-02-11T02:51:42.473Z,210.00
2023-02-11T02:54:31.911Z,220.75
2023-02-11T02:57:13.018Z,210.68
2023-02-11T02:59:53.562Z,195.73
2023-02-11T03:02:29.954Z,218.85
2023-02-11T03:05:09.218Z,218.90
2023-02-11T03:07:44.765Z,175.32
2023-02-11T03:10:19.995Z,233.48
2023-02-11T03:12:52.532Z,180.35
2023-02-11T03:15:24.567Z,180.00
2023-02-11T03:17:57.525Z,222.73
2023-02-11T03:20:33.008Z,211.48
2023-02-11T03:23:09.230Z,210.82
2023-02-11T03:25:46.986Z,209.65
2023-02-11T03:28:22.053Z,205.60
2023-02-11T03:30:58.232Z,199.48
2023-02-11T03:33:32.015Z,206.38
2023-02-11T03:36:12.204Z,202.57
2023-02-11T03:38:49.000Z,146.68
2023-02-11T03:41:24.331Z,160.85
2023-02-11T03:43:59.389Z,169.48
2023-02-11T03:46:34.346Z,170.52
2023-02-11T03:49:08.191Z,165.40
2023-02-11T03:51:42.320Z,165.45
2023-02-11T03:54:17.311Z,187.98
2023-02-11T03:56:52.827Z,156.68
2023-02-11T03:59:23.241Z,165.75
2023-02-11T04:01:53.536Z,171.98
2023-02-11T04:04:23.863Z,186.18
2023-02-11T04:06:56.579Z,158.05
2023-02-11T04:09:26.632Z,172.05
2023-02-11T04:11:56.716Z,176.05
2023-02-11T04:14:26.713Z,180.70
2023-02-11T04:16:56.772Z,181.50
2023-02-11T04:19:26.918Z,176.15
2023-02-11T04:21:59.758Z,141.25
2023-02-11T04:24:29.957Z,146.00
2023-02-11T04:27:00.000Z,161.32
2023-02-11T04:29:30.318Z,149.68
2023-02-11T04:32:00.492Z,150.10
2023-02-11T04:34:30.719Z,149.63
2023-02-11T04:37:03.455Z,147.60
2023-02-11T04:39:33.533Z,187.68
2023-02-11T04:42:03.787Z,146.48
2023-02-11T04:44:34.243Z,149.90
2023-02-11T04:47:04.411Z,158.20
2023-02-11T04:49:34.531Z,148.25
2023-02-11T04:52:07.172Z,156.95
2023-02-11T04:54:37.490Z,156.35
2023-02-11T04:57:07.640Z,186.63
2023-02-11T04:59:37.687Z,153.48
2023-02-11T05:02:08.148Z,182.43
2023-02-11T05:04:38.201Z,161.60
2023-02-11T05:07:10.992Z,151.77
2023-02-11T05:09:41.089Z,151.38
2023-02-11T05:12:11.259Z,166.40
2023-02-11T05:14:41.338Z,153.93
2023-02-11T05:17:11.575Z,185.40
2023-02-11T05:19:41.651Z,156.07
2023-02-11T05:22:14.993Z,152.50
2023-02-11T05:24:45.026Z,146.77
2023-02-11T05:27:15.197Z,144.52
2023-02-11T05:29:45.303Z,140.07
2023-02-11T05:32:15.365Z,152.65
2023-02-11T05:34:45.590Z,171.25
2023-02-11T05:37:18.310Z,135.80
2023-02-11T05:39:48.444Z,147.50
2023-02-11T05:42:18.558Z,149.80
2023-02-11T05:44:50.535Z,153.98
2023-02-11T05:47:20.839Z,141.48
2023-02-11T05:49:50.935Z,131.10
2023-02-11T05:52:23.956Z,137.10
2023-02-11T05:54:54.555Z,136.02
2023-02-11T05:57:24.673Z,136.68
2023-02-11T05:59:54.787Z,150.32
2023-02-11T06:02:24.895Z,128.60
2023-02-11T06:04:55.012Z,160.55
2023-02-11T06:07:27.637Z,147.32
2023-02-11T06:09:57.765Z,133.23
2023-02-11T06:12:27.958Z,157.50
2023-02-11T06:14:58.025Z,136.02
2023-02-11T06:17:29.280Z,140.50
2023-02-11T06:20:08.739Z,127.45
2023-02-11T06:22:44.331Z,161.38
2023-02-11T06:25:19.373Z,158.65
2023-02-11T06:27:51.706Z,154.70
2023-02-11T06:30:25.792Z,123.50
2023-02-11T06:33:05.831Z,134.88
2023-02-11T06:35:36.883Z,126.82
2023-02-11T06:38:10.784Z,139.63
2023-02-11T06:40:42.512Z,151.18
2023-02-11T06:43:12.876Z,154.35
2023-02-11T06:45:50.159Z,147.25
2023-02-11T06:48:20.280Z,145.50
2023-02-11T06:51:02.626Z,127.97
2023-02-11T06:53:44.381Z,137.30
2023-02-11T06:56:18.187Z,150.52
2023-02-11T06:58:58.589Z,126.45
2023-02-11T07:01:30.494Z,121.95
2023-02-11T07:04:01.797Z,133.10
2023-02-11T07:06:32.545Z,150.55
2023-02-11T07:11:51.809Z,155.80
2023-02-11T07:14:24.525Z,121.50
2023-02-11T07:16:56.401Z,123.40
2023-02-11T07:19:26.475Z,148.70
2023-02-11T07:21:56.572Z,145.25
2023-02-11T07:24:34.241Z,134.77
2023-02-11T07:27:07.855Z,138.98
2023-02-11T07:29:43.157Z,140.25
2023-02-11T07:32:15.915Z,115.43
2023-02-11T07:34:46.088Z,125.00
2023-02-11T07:37:16.539Z,130.60
2023-02-11T07:39:57.494Z,105.60
2023-02-11T07:44:59.591Z,116.20
2023-02-11T07:47:29.722Z,120.30
2023-02-11T07:50:02.988Z,98.63
2023-02-11T07:52:33.558Z,120.55
2023-02-11T07:55:11.259Z,113.80
2023-02-11T07:57:42.913Z,112.53
2023-02-11T08:00:23.833Z,111.35
2023-02-11T08:05:25.053Z,109.07
2023-02-11T08:07:55.665Z,112.93
2023-02-11T08:10:28.649Z,116.32
2023-02-11T08:12:59.147Z,117.53
2023-02-11T08:15:29.334Z,109.97
2023-02-11T08:17:59.357Z,125.97
2023-02-11T08:20:29.566Z,120.85
2023-02-11T08:22:59.688Z,120.50
2023-02-11T08:25:32.670Z,122.45
2023-02-11T08:28:02.950Z,122.00
2023-02-11T08:30:33.080Z,120.07
2023-02-11T08:33:03.416Z,117.93
2023-02-11T08:35:33.938Z,116.22
2023-02-11T08:38:06.515Z,103.55
2023-02-11T08:40:40.588Z,98.13
2023-02-11T08:43:13.671Z,106.70
2023-02-11T08:45:48.934Z,101.22
2023-02-11T08:48:21.799Z,99.68
2023-02-11T08:50:51.963Z,103.15
2023-02-11T08:53:22.178Z,106.55
2023-02-11T08:55:56.785Z,102.15
2023-02-11T08:58:26.970Z,103.45
2023-02-11T09:00:57.067Z,99.40
2023-02-11T09:03:27.342Z,102.45
2023-02-11T09:05:57.557Z,100.03
2023-02-11T09:08:27.706Z,96.53
2023-02-11T09:11:02.158Z,97.97
2023-02-11T09:13:32.515Z,89.30
2023-02-11T09:16:04.901Z,90.10
2023-02-11T09:18:35.632Z,90.07
2023-02-11T09:21:08.111Z,100.90
2023-02-11T09:23:43.931Z,84.97
2023-02-11T09:26:18.832Z,90.78
2023-02-11T09:28:49.494Z,92.32
2023-02-11T09:31:23.495Z,85.90
2023-02-11T09:33:56.163Z,90.43
2023-02-11T09:36:28.975Z,95.80
2023-02-11T09:39:02.115Z,102.93
2023-02-11T09:41:47.586Z,119.43
2023-02-11T09:44:23.066Z,89.50
2023-02-11T09:46:59.740Z,98.63
2023-02-11T09:49:38.567Z,91.82
2023-02-11T09:52:14.441Z,85.82
2023-02-11T09:54:52.642Z,86.22
2023-02-11T09:57:29.169Z,88.53
2023-02-11T10:00:00.892Z,84.47
2023-02-11T10:02:40.081Z,86.82
2023-02-11T10:05:30.918Z,83.00
2023-02-11T10:08:10.050Z,77.78
2023-02-11T10:10:54.205Z,81.13
2023-02-11T10:13:51.931Z,78.95
2023-02-11T10:16:33.083Z,76.93
2023-02-11T10:19:22.527Z,73.40
2023-02-11T10:22:02.815Z,73.80
2023-02-11T10:24:34.537Z,76.90
2023-02-11T10:27:11.908Z,74.07
2023-02-11T10:29:49.447Z,71.78
2023-02-11T10:32:30.901Z,67.72
2023-02-11T10:35:05.919Z,60.28
2023-02-11T10:37:36.360Z,61.70
2023-02-11T10:40:07.010Z,60.38
2023-02-11T10:42:39.138Z,57.67
2023-02-11T10:45:22.841Z,61.55
2023-02-11T10:47:52.989Z,53.67
2023-02-11T10:50:26.723Z,55.00
2023-02-11T10:53:14.904Z,67.97
2023-02-11T10:55:53.444Z,58.92
2023-02-11T10:58:29.629Z,59.80
2023-02-11T11:01:12.974Z,52.50
2023-02-11T11:03:52.584Z,42.85
2023-02-11T11:06:33.754Z,44.33
2023-02-11T11:11:34.882Z,52.40
2023-02-11T11:14:05.972Z,52.97
2023-02-11T11:16:39.582Z,44.22
2023-02-11T11:19:28.375Z,53.63
2023-02-11T11:22:00.527Z,53.40
2023-02-11T11:24:35.353Z,53.45
2023-02-11T11:27:08.402Z,39.78
2023-02-11T11:29:41.601Z,46.55
2023-02-11T11:32:23.464Z,59.25
2023-02-11T11:34:55.866Z,48.20
2023-02-11T11:37:29.058Z,46.80
2023-02-11T11:40:02.117Z,50.72
2023-02-11T11:42:34.065Z,49.83
2023-02-11T11:45:06.670Z,44.20
2023-02-11T11:47:46.212Z,41.10
2023-02-11T11:50:29.735Z,47.72
2023-02-11T11:53:07.696Z,44.65
2023-02-11T11:55:42.941Z,46.78
2023-02-11T11:58:18.344Z,44.00
2023-02-11T12:01:00.905Z,41.55
2023-02-11T12:04:02.205Z,39.95
2023-02-11T12:09:19.628Z,45.63
2023-02-11T12:12:04.631Z,45.13
2023-02-11T12:14:46.398Z,44.55
2023-02-11T12:17:25.560Z,41.83
2023-02-11T12:20:21.244Z,47.58
2023-02-11T12:23:02.904Z,43.90
2023-02-11T12:25:38.679Z,45.60
2023-02-11T12:28:25.519Z,50.83
2023-02-11T12:31:27.015Z,46.83
2023-02-11T12:34:17.553Z,43.45
2023-02-11T12:37:07.932Z,44.72
2023-02-11T12:39:46.208Z,40.95
2023-02-11T12:42:42.894Z,44.97
2023-02-11T12:45:24.932Z,47.22
2023-02-11T12:48:13.047Z,47.33
2023-02-11T12:50:56.939Z,41.78
2023-02-11T12:53:55.816Z,46.88
2023-02-11T12:56:33.727Z,45.00
2023-02-11T12:59:08.285Z,42.67
2023-02-11T13:01:43.023Z,40.58
2023-02-11T13:04:21.368Z,45.70
2023-02-11T13:06:55.156Z,42.85
2023-02-11T13:09:33.544Z,42.05
2023-02-11T13:12:29.198Z,39.13
2023-02-11T13:15:05.020Z,45.38
2023-02-11T13:17:43.782Z,44.30
2023-02-11T13:20:24.702Z,55.55
2023-02-11T13:23:03.025Z,46.00
2023-02-11T13:25:40.786Z,43.03
2023-02-11T13:28:25.759Z,51.08
2023-02-11T13:31:02.733Z,45.63
2023-02-11T13:33:39.921Z,47.70
2023-02-11T13:36:20.929Z,44.80
2023-02-11T13:41:38.245Z,43.50
2023-02-11T13:44:27.541Z,43.53
2023-02-11T13:47:01.964Z,43.65
2023-02-11T13:49:41.061Z,43.38
2023-02-11T13:52:25.029Z,39.55
2023-02-11T13:54:57.801Z,42.28
2023-02-11T13:58:11.036Z,46.97
2023-02-11T14:00:52.044Z,43.63
2023-02-11T14:03:48.022Z,41.40
2023-02-11T14:06:37.364Z,39.22
2023-02-11T14:09:38.793Z,40.53
2023-02-11T14:12:38.555Z,41.25
2023-02-11T14:15:28.214Z,50.85
2023-02-11T14:17:58.392Z,37.47
2023-02-11T14:20:42.147Z,35.73
2023-02-11T14:23:27.391Z,36.20
2023-02-11T14:26:11.889Z,37.03
2023-02-11T14:28:46.934Z,40.92
2023-02-11T14:31:24.165Z,40.67
2023-02-11T14:34:24.543Z,46.05
2023-02-11T14:37:06.311Z,46.17
2023-02-11T14:39:54.225Z,42.63
2023-02-11T14:42:27.824Z,42.60
2023-02-11T14:45:01.134Z,39.92
2023-02-11T14:47:43.522Z,41.25
2023-02-11T14:50:22.279Z,42.33
2023-02-11T14:52:53.257Z,46.30
2023-02-11T14:58:17.494Z,48.55
2023-02-11T15:00:53.062Z,53.53
2023-02-11T15:03:38.245Z,69.70
2023-02-11T15:06:15.630Z,98.50
2023-02-11T15:08:48.556Z,96.85
2023-02-11T15:11:22.713Z,75.30
2023-02-11T15:13:55.520Z,62.88
2023-02-11T15:16:27.916Z,64.40
2023-02-11T15:19:05.156Z,52.08
2023-02-11T15:21:37.755Z,52.42
2023-02-11T15:24:24.479Z,54.58
2023-02-11T15:27:05.592Z,48.83
2023-02-11T15:29:41.074Z,74.00
2023-02-11T15:32:18.080Z,54.72
2023-02-11T15:34:53.017Z,47.10
2023-02-11T15:37:25.695Z,48.08
2023-02-11T15:39:56.750Z,47.08
2023-02-11T15:45:29.236Z,50.47
2023-02-11T15:48:03.055Z,54.65
2023-02-11T15:50:40.860Z,49.75
2023-02-11T15:53:25.991Z,43.20
2023-02-11T15:56:00.376Z,51.30
2023-02-11T15:58:30.567Z,51.75
2023-02-11T16:01:00.809Z,48.97
2023-02-11T16:03:33.186Z,49.85
2023-02-11T16:06:21.621Z,49.65
2023-02-11T16:09:03.030Z,46.75
2023-02-11T16:11:34.977Z,46.88
2023-02-11T16:14:22.362Z,44.30
2023-02-11T16:16:55.220Z,50.67
2023-02-11T16:19:27.768Z,89.50
2023-02-11T16:22:03.378Z,85.18
2023-02-11T16:24:36.297Z,88.03
2023-02-11T16:27:09.615Z,73.90
2023-02-11T16:29:43.758Z,68.88
2023-02-11T16:32:22.631Z,58.25
2023-02-11T16:34:53.770Z,51.45
2023-02-11T16:37:27.070Z,53.90
2023-02-11T16:39:58.344Z,56.08
2023-02-11T16:42:28.403Z,54.85
2023-02-11T16:44:59.977Z,62.83
2023-02-11T16:47:32.680Z,62.50
2023-02-11T16:50:04.628Z,57.15
2023-02-11T16:52:38.795Z,56.78
2023-02-11T16:55:09.531Z,58.88
2023-02-11T16:57:39.651Z,52.35
2023-02-11T17:00:11.552Z,51.63
2023-02-11T17:02:42.357Z,60.75
2023-02-11T17:05:23.115Z,51.97
2023-02-11T17:07:55.852Z,51.15
2023-02-11T17:10:26.854Z,60.33
2023-02-11T17:15:26.619Z,62.30
2023-02-11T17:17:56.730Z,61.50
2023-02-11T17:20:27.197Z,68.80
2023-02-11T17:23:00.745Z,56.90
2023-02-11T17:25:31.362Z,56.50
2023-02-11T17:28:01.485Z,63.88
2023-02-11T17:30:31.611Z,68.85
2023-02-11T17:33:01.746Z,70.10
2023-02-11T17:35:31.886Z,74.70
2023-02-11T17:38:04.642Z,78.57
2023-02-11T17:40:34.646Z,85.55
2023-02-11T17:43:04.728Z,76.80
2023-02-11T17:45:34.757Z,73.50
2023-02-11T17:48:04.953Z,77.50
2023-02-11T17:50:38.679Z,72.07
2023-02-11T17:53:11.378Z,84.85
2023-02-11T17:55:41.559Z,74.22
2023-02-11T17:58:11.641Z,77.38
2023-02-11T18:00:41.744Z,73.70
2023-02-11T18:03:11.997Z,73.00
2023-02-11T18:05:42.320Z,65.63
2023-02-11T18:08:15.059Z,70.03
2023-02-11T18:10:45.736Z,65.40
2023-02-11T18:13:15.868Z,67.95
2023-02-11T18:15:46.098Z,72.95
2023-02-11T18:18:16.284Z,66.47
2023-02-11T18:20:47.932Z,69.55
2023-02-11T18:23:20.561Z,75.00
2023-02-11T18:25:50.971Z,80.35
2023-02-11T18:28:21.331Z,80.22
2023-02-11T18:30:51.493Z,85.20
2023-02-11T18:33:21.555Z,82.88
2023-02-11T18:35:51.983Z,82.03
2023-02-11T18:38:25.011Z,89.35
2023-02-11T18:40:55.097Z,89.40
2023-02-11T18:43:25.311Z,97.33
2023-02-11T18:45:55.631Z,111.50
2023-02-11T18:48:26.859Z,112.65
2023-02-11T18:50:58.304Z,120.10
2023-02-11T18:53:31.158Z,123.03
2023-02-11T18:56:01.737Z,132.85
2023-02-11T18:58:31.827Z,136.98
2023-02-11T19:01:02.194Z,146.25
2023-02-11T19:03:32.354Z,146.93
2023-02-11T19:06:02.428Z,146.43
2023-02-11T19:08:35.165Z,126.53
2023-02-11T19:11:07.987Z,117.32
2023-02-11T19:13:38.113Z,120.03
2023-02-11T19:16:11.471Z,118.13
2023-02-11T19:18:41.944Z,113.90
2023-02-11T19:21:13.259Z,115.75
2023-02-11T19:23:45.911Z,106.55
2023-02-11T19:26:15.954Z,106.80
2023-02-11T19:28:45.986Z,108.90
2023-02-11T19:31:16.875Z,112.43
2023-02-11T19:36:18.747Z,125.03
2023-02-11T19:38:51.476Z,114.00
2023-02-11T19:41:23.241Z,128.85
2023-02-11T19:43:56.772Z,129.05
2023-02-11T19:46:28.049Z,137.43
2023-02-11T19:48:58.418Z,143.30
2023-02-11T19:51:28.663Z,144.85
2023-02-11T19:54:02.283Z,170.80
2023-02-11T19:56:32.544Z,154.30
2023-02-11T19:59:04.831Z,161.23
2023-02-11T20:01:34.946Z,175.18
2023-02-11T20:04:05.101Z,167.38
2023-02-11T20:06:36.801Z,165.80
2023-02-11T20:09:11.742Z,161.18
2023-02-11T20:11:42.775Z,163.90
2023-02-11T20:16:49.831Z,156.80
2023-02-11T20:19:22.745Z,162.90
2023-02-11T20:21:58.260Z,156.63
2023-02-11T20:24:31.005Z,151.52
2023-02-11T20:27:01.064Z,140.63
2023-02-11T20:29:31.981Z,129.03
2023-02-11T20:37:04.255Z,122.15
2023-02-11T20:39:41.025Z,122.20
2023-02-11T20:42:12.614Z,127.25
2023-02-11T20:44:42.666Z,134.18
2023-02-11T20:47:12.791Z,145.53
2023-02-11T20:49:42.887Z,146.27
2023-02-11T20:52:13.024Z,155.80
2023-02-11T20:54:45.930Z,151.02
2023-02-11T20:57:16.038Z,150.73
2023-02-11T20:59:46.110Z,145.93
2023-02-11T21:02:16.212Z,154.63
2023-02-11T21:04:46.239Z,152.87
2023-02-11T21:07:16.341Z,150.43
2023-02-11T21:09:49.085Z,148.43
2023-02-11T21:12:19.168Z,151.38
2023-02-11T21:14:49.368Z,151.90
2023-02-11T21:17:19.488Z,150.32
2023-02-11T21:19:49.632Z,138.52
2023-02-11T21:22:19.666Z,148.20
2023-02-11T21:24:52.567Z,142.90
2023-02-11T21:27:23.522Z,132.93
2023-02-11T21:32:24.989Z,136.38
2023-02-11T21:34:55.225Z,137.73
2023-02-11T21:37:26.543Z,129.90
2023-02-11T21:39:59.196Z,134.32
2023-02-11T21:42:29.196Z,122.60
2023-02-11T21:44:59.645Z,124.63
2023-02-11T21:47:29.930Z,130.55
2023-02-11T21:49:59.980Z,121.45
2023-02-11T21:52:30.146Z,119.30
2023-02-11T21:55:03.535Z,114.67
2023-02-11T21:57:33.998Z,114.35
2023-02-11T22:00:04.269Z,114.97
2023-02-11T22:02:35.677Z,117.88
2023-02-11T22:05:06.888Z,127.53
2023-02-11T22:07:38.653Z,126.75
2023-02-11T22:10:12.807Z,120.45
2023-02-11T22:12:43.110Z,125.07
2023-02-11T22:15:13.466Z,125.95
2023-02-11T22:17:43.827Z,127.45
2023-02-11T22:20:15.848Z,130.55
2023-02-11T22:22:45.937Z,112.43
2023-02-11T22:25:18.854Z,121.90
2023-02-11T22:27:48.916Z,121.35
2023-02-11T22:30:19.326Z,119.87
2023-02-11T22:32:49.451Z,116.82
2023-02-11T22:35:19.569Z,122.53
2023-02-11T22:37:49.662Z,124.05
2023-02-11T22:40:23.577Z,112.63
2023-02-11T22:42:53.646Z,120.45
2023-02-11T22:45:23.753Z,117.77
2023-02-11T22:47:54.363Z,121.67
2023-02-11T22:50:24.450Z,123.25
2023-02-11T22:52:54.623Z,125.87
2023-02-11T22:55:27.401Z,130.40
2023-02-11T22:57:57.690Z,133.05
2023-02-11T23:00:33.784Z,133.70
2023-02-11T23:03:03.970Z,139.63
2023-02-11T23:05:34.083Z,149.00
2023-02-11T23:08:04.091Z,155.20
2023-02-11T23:10:37.516Z,153.77
2023-02-11T23:13:10.493Z,156.88
2023-02-11T23:15:42.950Z,157.80
2023-02-11T23:18:14.436Z,157.60
2023-02-11T23:20:46.576Z,157.15
2023-02-11T23:23:16.585Z,157.43
2023-02-11T23:25:49.181Z,143.80
2023-02-11T23:28:19.337Z,145.32
2023-02-11T23:30:49.571Z,131.05
2023-02-11T23:33:19.677Z,134.15
2023-02-11T23:35:49.807Z,129.27
2023-02-11T23:38:19.894Z,116.80
2023-02-11T23:40:52.536Z,123.00
2023-02-11T23:43:24.378Z,110.93
2023-02-11T23:45:55.056Z,114.55
2023-02-11T23:48:25.287Z,122.13
2023-02-11T23:50:55.442Z,112.30
2023-02-11T23:53:25.494Z,120.60
2023-02-11T23:55:58.102Z,119.30
2023-02-11T23:58:28.240Z,124.18
